createdAt,value
2017-12-31T00:00:58.523Z,10.50
2017-12-31T00:01:58.319Z,10.50
2017-12-31T00:02:58.071Z,11.30
2017-12-31T00:03:57.991Z,10.10
2017-12-31T00:04:57.803Z,9.40
2017-12-31T00:05:58.063Z,8.90
2017-12-31T00:06:58.486Z,10.30
2017-12-31T00:07:58.989Z,9.10
2017-12-31T00:08:58.559Z,9.80
2017-12-31T00:09:59.461Z,10.90
2017-12-31T00:10:58.614Z,10.40
2017-12-31T00:11:59.385Z,10.60
2017-12-31T00:12:58.692Z,12.50
2017-12-31T00:13:57.661Z,9.90
2017-12-31T00:14:58.661Z,9.90
2017-12-31T00:15:58.518Z,10.00
2017-12-31T00:17:00.128Z,10.20
2017-12-31T00:17:58.660Z,10.10
2017-12-31T00:18:58.917Z,9.60
2017-12-31T00:19:58.242Z,10.20
2017-12-31T00:20:58.394Z,10.30
2017-12-31T00:21:58.740Z,10.90
2017-12-31T00:22:59.231Z,10.40
2017-12-31T00:23:58.501Z,10.00
2017-12-31T00:24:58.854Z,10.10
2017-12-31T00:25:58.164Z,10.20
2017-12-31T00:26:59.211Z,10.60
2017-12-31T00:28:09.084Z,9.60
2017-12-31T00:29:06.618Z,10.00
2017-12-31T00:29:58.829Z,9.90
2017-12-31T00:31:00.439Z,11.20
2017-12-31T00:31:58.091Z,10.40
2017-12-31T00:32:58.121Z,9.50
2017-12-31T00:33:58.209Z,10.60
2017-12-31T00:34:58.466Z,9.20
2017-12-31T00:35:58.824Z,9.10
2017-12-31T00:36:57.641Z,10.50
2017-12-31T00:38:20.690Z,10.10
2017-12-31T00:39:21.009Z,9.90
2017-12-31T00:40:21.266Z,9.30
2017-12-31T00:41:20.143Z,9.40
2017-12-31T00:42:20.934Z,9.60
2017-12-31T00:43:21.220Z,10.10
2017-12-31T00:44:21.543Z,9.60
2017-12-31T00:45:20.713Z,9.20
2017-12-31T00:46:20.876Z,9.30
2017-12-31T00:47:20.995Z,10.10
2017-12-31T00:48:20.868Z,8.90
2017-12-31T00:49:21.438Z,8.70
2017-12-31T00:50:20.873Z,9.80
2017-12-31T00:51:20.867Z,10.80
2017-12-31T00:52:20.875Z,10.60
2017-12-31T00:53:20.851Z,9.50
2017-12-31T00:54:20.905Z,10.00
2017-12-31T00:55:21.059Z,9.60
2017-12-31T00:56:21.159Z,10.00
2017-12-31T00:57:21.268Z,10.30
2017-12-31T00:58:20.802Z,10.00
2017-12-31T00:59:21.248Z,10.10
2017-12-31T01:00:42.243Z,10.00
2017-12-31T01:01:41.931Z,10.30
2017-12-31T01:02:41.858Z,9.70
2017-12-31T01:03:41.997Z,9.10
2017-12-31T01:04:42.035Z,9.00
2017-12-31T01:05:41.681Z,10.40
2017-12-31T01:06:43.138Z,10.60
2017-12-31T01:07:42.088Z,10.10
2017-12-31T01:08:42.344Z,10.10
2017-12-31T01:09:42.788Z,9.90
2017-12-31T01:10:43.151Z,10.30
2017-12-31T01:11:42.293Z,10.00
2017-12-31T01:12:42.121Z,9.50
2017-12-31T01:13:42.171Z,10.00
2017-12-31T01:14:42.580Z,9.30
2017-12-31T01:15:42.921Z,10.00
2017-12-31T01:16:42.252Z,9.00
2017-12-31T01:17:42.349Z,10.60
2017-12-31T01:18:41.989Z,9.40
2017-12-31T01:19:42.139Z,9.80
2017-12-31T01:20:42.617Z,9.80
2017-12-31T01:21:42.599Z,9.20
2017-12-31T01:22:42.190Z,10.50
2017-12-31T01:23:42.231Z,10.10
2017-12-31T01:24:42.600Z,10.00
2017-12-31T01:25:43.302Z,10.20
2017-12-31T01:26:42.381Z,11.20
2017-12-31T01:27:42.381Z,10.50
2017-12-31T01:28:42.028Z,10.00
2017-12-31T01:29:42.003Z,10.10
2017-12-31T01:31:03.508Z,10.00
2017-12-31T01:32:04.519Z,10.30
2017-12-31T01:33:04.854Z,10.20
2017-12-31T01:34:05.177Z,9.00
2017-12-31T01:35:03.844Z,9.20
2017-12-31T01:36:04.414Z,9.00
2017-12-31T01:37:04.770Z,9.60
2017-12-31T01:38:04.217Z,8.30
2017-12-31T01:39:04.538Z,8.50
2017-12-31T01:40:04.577Z,10.20
2017-12-31T01:41:04.315Z,8.90
2017-12-31T01:42:04.057Z,8.90
2017-12-31T01:43:25.648Z,10.40
2017-12-31T01:44:27.029Z,9.70
2017-12-31T01:45:26.239Z,9.70
2017-12-31T01:46:26.662Z,8.60
2017-12-31T01:47:26.617Z,8.30
2017-12-31T01:48:26.045Z,8.40
2017-12-31T01:49:26.142Z,10.10
2017-12-31T01:50:25.714Z,8.60
2017-12-31T01:51:26.170Z,8.10
2017-12-31T01:52:25.882Z,9.90
2017-12-31T01:53:25.895Z,9.30
2017-12-31T01:54:25.644Z,8.80
2017-12-31T01:55:26.054Z,9.00
2017-12-31T01:56:26.832Z,10.00
2017-12-31T01:57:29.789Z,8.20
2017-12-31T01:58:26.180Z,9.20
2017-12-31T01:59:25.989Z,9.80
2017-12-31T02:00:26.413Z,9.00
2017-12-31T02:01:26.458Z,9.00
2017-12-31T02:02:26.907Z,8.50
2017-12-31T02:03:25.957Z,9.10
2017-12-31T02:04:25.753Z,9.50
2017-12-31T02:05:26.138Z,9.80
2017-12-31T02:06:26.637Z,10.10
2017-12-31T02:07:26.643Z,10.40
2017-12-31T02:08:27.027Z,10.50
2017-12-31T02:09:26.096Z,9.30
2017-12-31T02:10:26.075Z,8.10
2017-12-31T02:11:26.217Z,10.00
2017-12-31T02:12:26.700Z,8.90
2017-12-31T02:13:48.462Z,9.20
2017-12-31T02:14:48.822Z,7.80
2017-12-31T02:15:48.184Z,10.00
2017-12-31T02:16:48.467Z,8.60
2017-12-31T02:17:48.948Z,9.70
2017-12-31T02:18:47.831Z,9.00
2017-12-31T02:19:47.720Z,9.40
2017-12-31T02:20:48.258Z,9.20
2017-12-31T02:21:48.000Z,10.20
2017-12-31T02:22:47.723Z,8.30
2017-12-31T02:23:48.030Z,8.60
2017-12-31T02:24:48.555Z,8.90
2017-12-31T02:25:49.116Z,9.20
2017-12-31T02:26:48.198Z,8.60
2017-12-31T02:27:47.979Z,8.50
2017-12-31T02:29:09.484Z,9.40
2017-12-31T02:30:10.151Z,8.60
2017-12-31T02:31:10.052Z,8.80
2017-12-31T02:32:09.735Z,8.90
2017-12-31T02:33:10.060Z,9.90
2017-12-31T02:34:10.841Z,9.50
2017-12-31T02:35:10.115Z,9.20
2017-12-31T02:36:10.510Z,9.40
2017-12-31T02:37:10.379Z,9.30
2017-12-31T02:38:10.348Z,8.70
2017-12-31T02:39:11.075Z,9.60
2017-12-31T02:40:10.416Z,10.30
2017-12-31T02:41:10.820Z,9.10
2017-12-31T02:42:10.168Z,8.40
2017-12-31T02:43:09.904Z,9.60
2017-12-31T02:44:10.493Z,9.90
2017-12-31T02:45:10.852Z,9.10
2017-12-31T02:46:09.992Z,10.30
2017-12-31T02:47:09.575Z,9.50
2017-12-31T02:48:09.418Z,9.20
2017-12-31T02:49:10.225Z,9.10
2017-12-31T02:50:10.269Z,9.00
2017-12-31T02:51:10.678Z,9.00
2017-12-31T02:52:10.115Z,9.20
2017-12-31T02:53:09.953Z,9.40
2017-12-31T02:54:10.142Z,9.50
2017-12-31T02:55:10.044Z,9.90
2017-12-31T02:56:10.444Z,9.60
2017-12-31T02:57:10.008Z,10.10
2017-12-31T02:58:09.926Z,10.00
2017-12-31T02:59:09.602Z,9.10
2017-12-31T03:00:30.796Z,9.70
2017-12-31T03:01:32.736Z,8.70
2017-12-31T03:02:31.486Z,9.30
2017-12-31T03:03:31.179Z,8.80
2017-12-31T03:04:30.908Z,9.90
2017-12-31T03:05:31.895Z,9.00
2017-12-31T03:06:32.021Z,9.20
2017-12-31T03:07:31.714Z,9.10
2017-12-31T03:08:32.137Z,9.90
2017-12-31T03:09:31.997Z,8.30
2017-12-31T03:10:32.286Z,9.60
2017-12-31T03:11:31.099Z,8.20
2017-12-31T03:12:32.246Z,8.80
2017-12-31T03:13:52.420Z,8.00
2017-12-31T03:14:53.284Z,8.30
2017-12-31T03:15:53.775Z,8.30
2017-12-31T03:16:53.410Z,8.40
2017-12-31T03:17:53.037Z,7.60
2017-12-31T03:18:53.428Z,9.30
2017-12-31T03:19:53.467Z,8.60
2017-12-31T03:20:53.234Z,9.10
2017-12-31T03:21:53.142Z,9.40
2017-12-31T03:22:52.864Z,9.10
2017-12-31T03:23:53.224Z,8.40
2017-12-31T03:24:52.802Z,8.50
2017-12-31T03:25:53.250Z,8.40
2017-12-31T03:26:53.104Z,8.50
2017-12-31T03:27:52.840Z,8.60
2017-12-31T03:28:52.931Z,9.00
2017-12-31T03:29:52.738Z,9.80
2017-12-31T03:30:53.567Z,8.80
2017-12-31T03:31:53.655Z,9.30
2017-12-31T03:32:53.749Z,8.90
2017-12-31T03:33:53.282Z,7.90
2017-12-31T03:35:00.249Z,9.40
2017-12-31T03:37:32.693Z,7.90
2017-12-31T03:38:33.920Z,7.10
2017-12-31T03:39:54.417Z,8.30
2017-12-31T03:40:55.828Z,8.10
2017-12-31T03:41:54.860Z,7.50
2017-12-31T03:42:55.375Z,9.50
2017-12-31T03:43:55.280Z,8.90
2017-12-31T03:44:55.585Z,7.30
2017-12-31T03:45:55.720Z,7.30
2017-12-31T03:46:55.952Z,8.40
2017-12-31T03:47:55.287Z,7.40
2017-12-31T03:48:54.800Z,8.00
2017-12-31T03:49:55.265Z,8.60
2017-12-31T03:50:55.606Z,7.70
2017-12-31T03:51:55.357Z,8.20
2017-12-31T03:52:56.044Z,8.40
2017-12-31T03:53:54.859Z,8.00
2017-12-31T03:54:54.636Z,9.40
2017-12-31T03:55:54.409Z,7.70
2017-12-31T03:56:55.575Z,8.10
2017-12-31T03:57:55.996Z,7.70
2017-12-31T03:58:54.866Z,8.10
2017-12-31T03:59:54.732Z,8.70
2017-12-31T04:00:54.666Z,8.50
2017-12-31T04:01:55.613Z,8.10
2017-12-31T04:03:40.905Z,8.20
2017-12-31T04:04:41.280Z,8.00
2017-12-31T04:05:41.310Z,7.60
2017-12-31T04:06:41.819Z,7.60
2017-12-31T04:07:41.314Z,6.90
2017-12-31T04:08:41.442Z,6.90
2017-12-31T04:09:41.668Z,7.60
2017-12-31T04:10:41.592Z,7.90
2017-12-31T04:11:41.925Z,6.90
2017-12-31T04:12:40.911Z,8.10
2017-12-31T04:13:41.376Z,7.90
2017-12-31T04:14:41.569Z,8.10
2017-12-31T04:15:41.547Z,7.80
2017-12-31T04:16:41.417Z,7.40
2017-12-31T04:17:41.760Z,7.40
2017-12-31T04:18:41.540Z,8.40
2017-12-31T04:19:41.912Z,8.00
2017-12-31T04:20:41.842Z,7.10
2017-12-31T04:21:40.905Z,8.30
2017-12-31T04:22:41.267Z,8.00
2017-12-31T04:23:41.580Z,8.00
2017-12-31T04:24:41.656Z,7.20
2017-12-31T04:26:03.088Z,8.50
2017-12-31T04:27:04.420Z,7.70
2017-12-31T04:28:03.851Z,7.80
2017-12-31T04:29:25.810Z,8.30
2017-12-31T04:30:26.764Z,8.20
2017-12-31T04:31:26.762Z,7.60
2017-12-31T04:32:27.025Z,7.90
2017-12-31T04:33:26.450Z,9.00
2017-12-31T04:34:26.834Z,8.70
2017-12-31T04:35:27.137Z,8.40
2017-12-31T04:36:25.783Z,8.10
2017-12-31T04:37:26.296Z,8.70
2017-12-31T04:38:26.076Z,9.60
2017-12-31T04:39:25.965Z,9.00
2017-12-31T04:40:26.474Z,9.10
2017-12-31T04:41:26.447Z,9.00
2017-12-31T04:42:26.165Z,9.80
2017-12-31T04:43:26.320Z,9.40
2017-12-31T04:44:26.647Z,9.50
2017-12-31T04:45:26.519Z,8.90
2017-12-31T04:46:26.649Z,9.00
2017-12-31T04:47:26.768Z,9.50
2017-12-31T04:48:26.455Z,9.80
2017-12-31T04:49:48.804Z,10.30
2017-12-31T04:50:48.418Z,9.50
2017-12-31T04:51:48.550Z,10.20
2017-12-31T04:52:48.151Z,10.10
2017-12-31T04:53:49.199Z,9.60
2017-12-31T04:54:48.949Z,9.70
2017-12-31T04:55:49.310Z,10.10
2017-12-31T04:56:49.520Z,10.50
2017-12-31T04:57:48.919Z,9.60
2017-12-31T04:59:32.800Z,9.90
2017-12-31T05:00:34.115Z,11.00
2017-12-31T05:01:33.156Z,10.90
2017-12-31T05:02:34.379Z,10.50
2017-12-31T05:03:33.698Z,10.80
2017-12-31T05:04:33.731Z,10.60
2017-12-31T05:05:34.039Z,11.40
2017-12-31T05:06:33.432Z,10.50
2017-12-31T05:07:33.461Z,11.20
2017-12-31T05:08:33.666Z,12.10
2017-12-31T05:09:33.684Z,10.50
2017-12-31T05:10:34.167Z,10.70
2017-12-31T05:11:32.847Z,10.70
2017-12-31T05:12:34.294Z,10.60
2017-12-31T05:13:33.782Z,10.80
2017-12-31T05:14:34.219Z,10.60
2017-12-31T05:15:33.208Z,9.30
2017-12-31T05:16:33.487Z,10.40
2017-12-31T05:17:33.593Z,10.60
2017-12-31T05:18:33.884Z,10.50
2017-12-31T05:19:55.749Z,11.20
2017-12-31T05:20:56.610Z,11.40
2017-12-31T05:21:56.931Z,11.70
2017-12-31T05:22:55.986Z,12.30
2017-12-31T05:23:56.997Z,10.30
2017-12-31T05:24:56.463Z,11.50
2017-12-31T05:25:56.335Z,12.00
2017-12-31T05:26:56.801Z,10.70
2017-12-31T05:27:56.878Z,12.80
2017-12-31T05:28:57.310Z,11.30
2017-12-31T05:29:56.194Z,11.00
2017-12-31T05:30:55.789Z,11.80
2017-12-31T05:31:56.945Z,12.30
2017-12-31T05:32:57.378Z,12.70
2017-12-31T05:33:56.466Z,12.50
2017-12-31T05:34:56.061Z,12.70
2017-12-31T05:35:56.400Z,13.00
2017-12-31T05:36:56.789Z,13.10
2017-12-31T05:37:56.972Z,12.20
2017-12-31T05:38:56.429Z,11.90
2017-12-31T05:40:19.155Z,12.10
2017-12-31T05:41:19.688Z,11.90
2017-12-31T05:42:19.570Z,12.50
2017-12-31T05:43:20.051Z,13.00
2017-12-31T05:44:19.120Z,12.60
2017-12-31T05:45:18.753Z,12.90
2017-12-31T05:46:20.003Z,14.60
2017-12-31T05:47:18.959Z,12.90
2017-12-31T05:48:19.292Z,13.30
2017-12-31T05:49:19.521Z,14.00
2017-12-31T05:50:19.877Z,14.00
2017-12-31T05:51:19.541Z,14.20
2017-12-31T05:52:19.472Z,14.60
2017-12-31T05:53:19.511Z,14.70
2017-12-31T05:54:19.899Z,13.80
2017-12-31T05:55:19.353Z,14.80
2017-12-31T05:56:19.590Z,14.30
2017-12-31T05:57:20.042Z,14.80
2017-12-31T05:58:19.451Z,14.60
2017-12-31T05:59:19.406Z,14.30
2017-12-31T06:00:19.673Z,15.00
2017-12-31T06:01:19.195Z,15.30
2017-12-31T06:02:19.054Z,15.80
2017-12-31T06:03:19.301Z,15.50
2017-12-31T06:04:19.788Z,14.00
2017-12-31T06:05:19.347Z,13.70
2017-12-31T06:06:19.743Z,14.30
2017-12-31T06:07:42.220Z,13.70
2017-12-31T06:08:42.150Z,13.90
2017-12-31T06:09:41.987Z,12.20
2017-12-31T06:10:43.224Z,13.50
2017-12-31T06:11:41.786Z,13.80
2017-12-31T06:12:42.258Z,13.10
2017-12-31T06:13:42.691Z,14.30
2017-12-31T06:14:43.149Z,13.50
2017-12-31T06:15:42.094Z,13.10
2017-12-31T06:16:41.743Z,13.60
2017-12-31T06:17:43.033Z,13.80
2017-12-31T06:18:42.541Z,14.40
2017-12-31T06:19:42.750Z,14.30
2017-12-31T06:20:43.090Z,13.20
2017-12-31T06:21:41.679Z,14.30
2017-12-31T06:22:42.596Z,13.50
2017-12-31T06:23:42.852Z,14.40
2017-12-31T06:24:42.418Z,14.60
2017-12-31T06:25:42.457Z,14.20
2017-12-31T06:26:42.883Z,15.30
2017-12-31T06:27:43.153Z,15.20
2017-12-31T06:28:42.571Z,15.90
2017-12-31T06:29:42.681Z,15.60
2017-12-31T06:30:42.644Z,15.70
2017-12-31T06:31:42.534Z,16.30
2017-12-31T06:32:42.756Z,13.30
2017-12-31T06:33:43.083Z,17.20
2017-12-31T06:34:42.447Z,16.00
2017-12-31T06:35:42.906Z,18.10
2017-12-31T06:36:41.937Z,16.30
2017-12-31T06:37:42.232Z,17.90
2017-12-31T06:38:42.660Z,18.40
2017-12-31T06:39:42.573Z,18.80
2017-12-31T06:40:43.044Z,18.30
2017-12-31T06:41:42.245Z,19.10
2017-12-31T06:42:41.882Z,18.00
2017-12-31T06:43:42.220Z,20.90
2017-12-31T06:44:42.122Z,19.50
2017-12-31T06:45:42.462Z,21.00
2017-12-31T06:46:42.581Z,21.30
2017-12-31T06:47:43.116Z,21.30
2017-12-31T06:48:41.773Z,21.40
2017-12-31T06:49:43.115Z,22.60
2017-12-31T06:50:42.008Z,22.60
2017-12-31T06:51:42.393Z,21.80
2017-12-31T06:52:42.858Z,21.00
2017-12-31T06:53:43.095Z,21.00
2017-12-31T06:54:42.063Z,20.50
2017-12-31T06:55:42.303Z,22.00
2017-12-31T06:56:41.901Z,22.10
2017-12-31T06:57:42.304Z,20.50
2017-12-31T06:58:42.693Z,21.40
2017-12-31T06:59:42.345Z,22.00
2017-12-31T07:00:42.716Z,19.20
2017-12-31T07:01:42.278Z,21.70
2017-12-31T07:02:42.577Z,19.80
2017-12-31T07:03:43.240Z,21.40
2017-12-31T07:04:42.226Z,20.00
2017-12-31T07:05:42.544Z,21.60
2017-12-31T07:06:42.663Z,20.30
2017-12-31T07:07:42.287Z,19.50
2017-12-31T07:08:42.092Z,16.40
2017-12-31T07:09:42.006Z,19.80
2017-12-31T07:10:42.356Z,18.50
2017-12-31T07:11:42.833Z,16.60
2017-12-31T07:12:42.325Z,18.90
2017-12-31T07:13:42.777Z,18.50
2017-12-31T07:14:43.217Z,18.80
2017-12-31T07:15:41.841Z,16.60
2017-12-31T07:16:41.896Z,17.20
2017-12-31T07:17:42.025Z,18.60
2017-12-31T07:18:42.330Z,19.20
2017-12-31T07:19:42.332Z,15.10
2017-12-31T07:20:42.696Z,15.10
2017-12-31T07:21:43.056Z,15.20
2017-12-31T07:22:42.505Z,13.30
2017-12-31T07:23:42.430Z,14.60
2017-12-31T07:24:42.241Z,13.60
2017-12-31T07:25:42.613Z,9.20
2017-12-31T07:26:43.145Z,12.00
2017-12-31T07:27:42.185Z,11.80
2017-12-31T07:28:42.753Z,12.10
2017-12-31T07:29:41.973Z,10.70
2017-12-31T07:30:42.502Z,7.60
2017-12-31T07:31:42.560Z,9.80
2017-12-31T07:32:43.041Z,10.00
2017-12-31T07:33:42.382Z,7.50
2017-12-31T07:34:42.853Z,7.50
2017-12-31T07:35:42.407Z,7.60
2017-12-31T07:36:42.746Z,5.60
2017-12-31T07:37:42.699Z,6.90
2017-12-31T07:38:42.940Z,6.10
2017-12-31T07:39:42.529Z,5.50
2017-12-31T07:40:42.769Z,5.20
2017-12-31T07:41:42.015Z,5.90
2017-12-31T07:42:42.727Z,5.30
2017-12-31T07:43:42.294Z,5.30
2017-12-31T07:44:42.418Z,5.00
2017-12-31T07:45:42.637Z,5.40
2017-12-31T07:46:42.681Z,5.40
2017-12-31T07:47:43.187Z,4.10
2017-12-31T07:48:41.975Z,4.90
2017-12-31T07:49:41.792Z,4.40
2017-12-31T07:50:42.517Z,3.40
2017-12-31T07:51:42.540Z,4.10
2017-12-31T07:52:42.781Z,4.50
2017-12-31T07:53:41.716Z,5.10
2017-12-31T07:54:43.173Z,4.80
2017-12-31T07:55:42.962Z,5.10
2017-12-31T07:56:42.141Z,6.00
2017-12-31T07:57:42.522Z,4.40
2017-12-31T07:58:42.414Z,4.40
2017-12-31T07:59:42.577Z,4.90
2017-12-31T08:00:43.097Z,5.80
2017-12-31T08:01:42.515Z,5.70
2017-12-31T08:02:43.003Z,4.80
2017-12-31T08:03:41.771Z,3.30
2017-12-31T08:04:42.303Z,6.20
2017-12-31T08:05:42.793Z,4.20
2017-12-31T08:06:41.924Z,6.30
2017-12-31T08:07:42.308Z,5.80
2017-12-31T08:08:42.975Z,6.10
2017-12-31T08:09:42.035Z,4.10
2017-12-31T08:10:42.151Z,6.60
2017-12-31T08:11:42.437Z,6.40
2017-12-31T08:12:42.194Z,7.00
2017-12-31T08:13:42.170Z,8.00
2017-12-31T08:14:42.147Z,6.00
2017-12-31T08:15:42.685Z,7.40
2017-12-31T08:16:42.783Z,5.50
2017-12-31T08:17:42.025Z,6.10
2017-12-31T08:18:42.135Z,4.10
2017-12-31T08:19:42.122Z,4.80
2017-12-31T08:20:42.638Z,6.00
2017-12-31T08:21:42.905Z,4.00
2017-12-31T08:22:41.776Z,3.80
2017-12-31T08:23:42.839Z,5.00
2017-12-31T08:24:41.700Z,3.90
2017-12-31T08:25:41.608Z,5.20
2017-12-31T08:26:42.153Z,6.80
2017-12-31T08:27:42.464Z,5.10
2017-12-31T08:28:43.044Z,6.00
2017-12-31T08:29:41.781Z,5.20
2017-12-31T08:30:41.548Z,4.80
2017-12-31T08:31:43.005Z,4.40
2017-12-31T08:32:42.411Z,6.90
2017-12-31T08:33:43.150Z,6.20
2017-12-31T08:34:42.290Z,4.50
2017-12-31T08:35:42.896Z,4.90
2017-12-31T08:36:41.607Z,5.60
2017-12-31T08:37:42.758Z,6.40
2017-12-31T08:38:41.983Z,5.30
2017-12-31T08:39:42.112Z,5.90
2017-12-31T08:40:42.481Z,4.70
2017-12-31T08:41:42.318Z,5.90
2017-12-31T08:42:42.865Z,5.20
2017-12-31T08:43:42.217Z,3.80
2017-12-31T08:44:42.589Z,3.50
2017-12-31T08:45:42.440Z,5.90
2017-12-31T08:46:42.130Z,3.80
2017-12-31T08:47:41.941Z,3.60
2017-12-31T08:48:42.736Z,4.50
2017-12-31T08:49:41.639Z,6.00
2017-12-31T08:50:42.262Z,6.10
2017-12-31T08:51:42.091Z,6.80
2017-12-31T08:52:41.933Z,4.50
2017-12-31T08:53:42.025Z,7.10
2017-12-31T08:54:42.360Z,6.80
2017-12-31T08:55:42.523Z,5.50
2017-12-31T08:56:42.959Z,4.70
2017-12-31T08:57:41.783Z,5.20
2017-12-31T08:58:42.004Z,5.60
2017-12-31T08:59:41.714Z,5.50
2017-12-31T09:00:41.529Z,4.80
2017-12-31T09:01:42.605Z,4.60
2017-12-31T09:02:42.337Z,5.30
2017-12-31T09:03:42.600Z,3.40
2017-12-31T09:04:43.218Z,5.00
2017-12-31T09:05:42.410Z,4.20
2017-12-31T09:06:42.829Z,5.40
2017-12-31T09:07:42.298Z,5.10
2017-12-31T09:08:42.895Z,5.60
2017-12-31T09:09:42.259Z,4.50
2017-12-31T09:10:42.797Z,4.10
2017-12-31T09:11:42.222Z,4.80
2017-12-31T09:12:42.625Z,5.70
2017-12-31T09:13:43.004Z,4.00
2017-12-31T09:14:42.471Z,4.20
2017-12-31T09:15:42.964Z,4.20
2017-12-31T09:16:42.434Z,4.30
2017-12-31T09:17:42.899Z,4.20
2017-12-31T09:18:42.403Z,4.60
2017-12-31T09:19:42.900Z,4.20
2017-12-31T09:20:42.350Z,3.50
2017-12-31T09:22:07.923Z,0.00
2017-12-31T09:23:09.268Z,4.60
2017-12-31T09:24:07.944Z,3.90
2017-12-31T09:25:08.363Z,3.20
2017-12-31T09:26:07.868Z,4.00
2017-12-31T09:27:08.480Z,3.00
2017-12-31T09:28:07.245Z,5.00
2017-12-31T09:29:08.139Z,3.30
2017-12-31T09:30:08.745Z,4.60
2017-12-31T09:31:07.994Z,5.20
2017-12-31T09:32:08.570Z,4.40
2017-12-31T09:33:07.636Z,3.30
2017-12-31T09:34:07.637Z,3.70
2017-12-31T09:35:07.507Z,3.60
2017-12-31T09:36:08.102Z,3.90
2017-12-31T09:37:08.011Z,4.00
2017-12-31T09:38:08.600Z,4.30
2017-12-31T09:39:08.226Z,3.70
2017-12-31T09:40:08.768Z,3.90
2017-12-31T09:41:08.081Z,3.40
2017-12-31T09:42:08.797Z,3.70
2017-12-31T09:43:09.154Z,3.20
2017-12-31T09:44:08.349Z,3.50
2017-12-31T09:45:07.863Z,3.20
2017-12-31T09:46:30.699Z,3.40
2017-12-31T09:47:30.623Z,2.60
2017-12-31T09:48:30.592Z,2.80
2017-12-31T09:49:31.133Z,3.20
2017-12-31T09:50:31.653Z,2.40
2017-12-31T09:51:30.459Z,2.80
2017-12-31T09:52:30.597Z,3.10
2017-12-31T09:53:30.836Z,4.00
2017-12-31T09:54:31.473Z,3.70
2017-12-31T09:55:30.635Z,3.50
2017-12-31T09:56:53.491Z,2.30
2017-12-31T09:57:54.092Z,2.40
2017-12-31T09:58:53.518Z,3.90
2017-12-31T09:59:54.700Z,2.70
2017-12-31T10:00:53.910Z,2.70
2017-12-31T10:01:54.068Z,3.60
2017-12-31T10:02:53.657Z,3.50
2017-12-31T10:03:53.778Z,2.40
2017-12-31T10:04:54.272Z,2.20
2017-12-31T10:05:53.258Z,2.60
2017-12-31T10:06:53.454Z,2.60
2017-12-31T10:07:54.533Z,2.70
2017-12-31T10:08:54.006Z,2.20
2017-12-31T10:09:53.309Z,2.40
2017-12-31T10:10:54.279Z,2.20
2017-12-31T10:11:53.803Z,2.20
2017-12-31T10:12:54.111Z,2.60
2017-12-31T10:13:53.467Z,2.50
2017-12-31T10:14:53.910Z,3.30
2017-12-31T10:15:54.766Z,3.10
2017-12-31T10:16:54.175Z,3.10
2017-12-31T10:17:53.584Z,2.90
2017-12-31T10:18:53.494Z,2.20
2017-12-31T10:19:54.634Z,2.30
2017-12-31T10:20:55.301Z,2.80
2017-12-31T10:21:53.718Z,3.30
2017-12-31T10:22:53.656Z,2.40
2017-12-31T10:23:54.048Z,2.40
2017-12-31T10:24:54.037Z,3.00
2017-12-31T10:26:17.157Z,2.00
2017-12-31T10:27:18.534Z,2.70
2017-12-31T10:28:18.068Z,2.90
2017-12-31T10:29:17.563Z,3.10
2017-12-31T10:30:17.471Z,2.80
2017-12-31T10:31:17.584Z,2.50
2017-12-31T10:32:17.984Z,2.20
2017-12-31T10:33:17.471Z,3.00
2017-12-31T10:34:17.705Z,3.10
2017-12-31T10:35:18.218Z,3.10
2017-12-31T10:36:17.318Z,2.90
2017-12-31T10:37:18.007Z,3.50
2017-12-31T10:38:17.455Z,3.30
2017-12-31T10:39:17.923Z,2.90
2017-12-31T10:40:18.429Z,3.90
2017-12-31T10:41:18.032Z,3.80
2017-12-31T10:42:17.545Z,3.70
2017-12-31T10:43:18.188Z,3.70
2017-12-31T10:44:17.924Z,3.70
2017-12-31T10:45:17.614Z,3.50
2017-12-31T10:46:18.267Z,3.10
2017-12-31T10:47:17.835Z,3.70
2017-12-31T10:48:18.357Z,3.30
2017-12-31T10:49:40.046Z,4.10
2017-12-31T10:50:40.156Z,4.70
2017-12-31T10:51:40.594Z,2.70
2017-12-31T10:53:01.699Z,2.70
2017-12-31T10:54:03.857Z,3.60
2017-12-31T10:55:01.627Z,3.90
2017-12-31T10:56:03.251Z,3.90
2017-12-31T10:57:02.855Z,3.10
2017-12-31T10:58:02.330Z,4.30
2017-12-31T10:59:02.817Z,5.30
2017-12-31T11:00:02.549Z,5.80
2017-12-31T11:01:03.018Z,4.80
2017-12-31T11:02:02.391Z,3.90
2017-12-31T11:03:02.287Z,4.00
2017-12-31T11:04:02.741Z,3.90
2017-12-31T11:05:03.228Z,5.00
2017-12-31T11:06:02.128Z,4.90
2017-12-31T11:07:02.354Z,4.10
2017-12-31T11:08:46.207Z,3.20
2017-12-31T11:10:30.596Z,4.20
2017-12-31T11:11:30.990Z,4.10
2017-12-31T11:12:31.372Z,3.90
2017-12-31T11:13:30.739Z,3.60
2017-12-31T11:14:31.104Z,3.60
2017-12-31T11:15:31.726Z,3.60
2017-12-31T11:16:31.541Z,3.50
2017-12-31T11:17:32.060Z,3.40
2017-12-31T11:18:31.553Z,4.00
2017-12-31T11:19:31.368Z,4.40
2017-12-31T11:20:31.090Z,3.20
2017-12-31T11:21:31.629Z,3.70
2017-12-31T11:22:30.950Z,3.40
2017-12-31T11:23:32.523Z,3.60
2017-12-31T11:24:30.535Z,3.90
2017-12-31T11:25:31.036Z,4.50
2017-12-31T11:26:31.662Z,4.00
2017-12-31T11:27:31.360Z,3.80
2017-12-31T11:28:33.029Z,4.00
2017-12-31T11:29:31.080Z,3.60
2017-12-31T11:30:31.146Z,3.50
2017-12-31T11:31:32.013Z,3.00
2017-12-31T11:32:32.449Z,3.50
2017-12-31T11:33:30.952Z,3.50
2017-12-31T11:34:31.359Z,3.70
2017-12-31T11:35:31.213Z,3.50
2017-12-31T11:36:31.853Z,3.30
2017-12-31T11:37:31.377Z,3.00
2017-12-31T11:38:31.577Z,2.70
2017-12-31T11:39:53.565Z,3.30
2017-12-31T11:40:53.687Z,2.60
2017-12-31T11:41:55.359Z,3.30
2017-12-31T11:42:53.749Z,3.30
2017-12-31T11:43:54.141Z,2.70
2017-12-31T11:44:53.510Z,3.20
2017-12-31T11:45:54.036Z,3.00
2017-12-31T11:46:52.956Z,2.70
2017-12-31T11:47:54.275Z,3.10
2017-12-31T11:48:53.809Z,2.50
2017-12-31T11:49:54.254Z,3.00
2017-12-31T11:50:53.816Z,2.70
2017-12-31T11:51:53.827Z,2.10
2017-12-31T11:52:54.413Z,2.30
2017-12-31T11:53:53.902Z,3.50
2017-12-31T11:54:53.957Z,3.70
2017-12-31T11:55:53.622Z,3.20
2017-12-31T11:56:54.040Z,3.40
2017-12-31T11:57:53.502Z,2.40
2017-12-31T11:58:53.643Z,2.20
2017-12-31T12:00:16.451Z,2.20
2017-12-31T12:01:17.815Z,2.60
2017-12-31T12:02:17.671Z,2.20
2017-12-31T12:03:18.664Z,2.80
2017-12-31T12:04:17.150Z,2.20
2017-12-31T12:05:16.621Z,2.60
2017-12-31T12:06:16.894Z,2.30
2017-12-31T12:07:16.594Z,2.50
2017-12-31T12:08:17.148Z,2.30
2017-12-31T12:09:16.461Z,1.90
2017-12-31T12:10:17.565Z,1.90
2017-12-31T12:11:17.233Z,3.10
2017-12-31T12:12:16.406Z,2.40
2017-12-31T12:13:16.719Z,1.90
2017-12-31T12:14:17.821Z,1.70
2017-12-31T12:15:17.382Z,2.30
2017-12-31T12:16:16.809Z,2.60
2017-12-31T12:17:17.282Z,2.60
2017-12-31T12:19:00.779Z,2.30
2017-12-31T12:20:01.440Z,2.00
2017-12-31T12:21:02.549Z,1.70
2017-12-31T12:22:05.680Z,2.10
2017-12-31T12:23:01.418Z,1.90
2017-12-31T12:24:01.986Z,2.20
2017-12-31T12:25:03.269Z,2.10
2017-12-31T12:26:02.335Z,2.20
2017-12-31T12:27:01.796Z,2.10
2017-12-31T12:28:00.618Z,1.70
2017-12-31T12:29:01.131Z,2.20
2017-12-31T12:30:03.043Z,2.40
2017-12-31T12:31:02.243Z,2.10
2017-12-31T12:32:03.643Z,2.20
2017-12-31T12:33:01.070Z,1.70
2017-12-31T12:34:01.747Z,2.40
2017-12-31T12:35:02.458Z,1.70
2017-12-31T12:36:02.017Z,1.80
2017-12-31T12:37:02.495Z,1.80
2017-12-31T12:38:01.871Z,1.70
2017-12-31T12:39:02.298Z,1.50
2017-12-31T12:40:01.831Z,2.00
2017-12-31T12:41:01.166Z,2.40
2017-12-31T12:42:02.048Z,2.20
2017-12-31T12:43:01.804Z,2.00
2017-12-31T12:44:01.114Z,1.60
2017-12-31T12:45:02.171Z,1.40
2017-12-31T12:46:02.389Z,2.10
2017-12-31T12:47:01.564Z,1.80
2017-12-31T12:48:01.011Z,1.70
2017-12-31T12:49:02.884Z,1.20
2017-12-31T12:50:01.480Z,1.70
2017-12-31T12:51:01.939Z,1.80
2017-12-31T12:52:01.658Z,1.90
2017-12-31T12:53:01.639Z,1.80
2017-12-31T12:54:02.088Z,2.10
2017-12-31T12:55:01.474Z,2.30
2017-12-31T12:56:01.305Z,1.50
2017-12-31T12:57:02.606Z,1.70
2017-12-31T12:58:01.279Z,1.60
2017-12-31T12:59:01.903Z,2.00
2017-12-31T13:00:01.384Z,1.60
2017-12-31T13:01:01.437Z,1.80
2017-12-31T13:02:02.059Z,1.60
2017-12-31T13:03:01.746Z,2.00
2017-12-31T13:04:02.735Z,1.80
2017-12-31T13:05:01.248Z,2.00
2017-12-31T13:06:01.671Z,1.70
2017-12-31T13:07:01.166Z,1.90
2017-12-31T13:08:02.016Z,2.00
2017-12-31T13:09:02.218Z,1.70
2017-12-31T13:10:02.858Z,2.70
2017-12-31T13:11:02.092Z,1.70
2017-12-31T13:12:01.890Z,1.50
2017-12-31T13:13:02.195Z,1.30
2017-12-31T13:14:08.116Z,1.90
2017-12-31T13:15:13.560Z,1.20
2017-12-31T13:16:11.939Z,1.40
2017-12-31T13:17:09.731Z,1.30
2017-12-31T13:18:11.172Z,1.60
2017-12-31T13:19:02.147Z,1.80
2017-12-31T13:20:05.523Z,1.50
2017-12-31T13:21:01.254Z,1.70
2017-12-31T13:22:01.913Z,2.10
2017-12-31T13:23:01.489Z,1.50
2017-12-31T13:24:02.018Z,1.60
2017-12-31T13:25:01.663Z,1.30
2017-12-31T13:26:01.380Z,1.40